Time;durP1;ratioP1;P1;durP2;ratioP2;P2;SDS_P1;SDS_P2;PMS_P1;PMS_P2;Temp;Humidity;BMP_temperature;BMP_pressure;BME280_temperature;BME280_humidity;BME280_pressure;Samples;Min_cycle;Max_cycle;Signal;HPM_P1;HPM_P2
2022/04/19 11:31:00;;;;;;;;;13.00;9.75;;;;;19.98;41.95;101042.88;6161597;22;46438;-81
2022/04/19 11:37:04;;;;;;;;;12.50;11.00;;;;;20.21;41.80;101037.53;6125726;23;46080;-83
2022/04/19 12:06:59;;;;;;;;;;;;;;;;;;;;;
2022/04/19 12:17:21;;;;;;;;;10.50;10.50;;;;;20.44;40.42;101038.41;5868306;24;45391;-85
2022/04/19 13:34:36;;;;;;;;;6.00;4.67;;;;;21.75;36.04;100970.31;6123666;23;45299;-82
2022/04/19 13:37:26;;;;;;;;;;;;;;;;;;;;;
2022/04/19 13:40:53;;;;;;;;;7.67;5.67;;;;;21.75;35.88;100967.63;6124271;23;75174;-83
2022/04/19 13:43:41;;;;;;;;;5.00;4.00;;;;;21.83;35.89;100958.38;6099124;23;45555;-83
2022/04/19 13:46:13;;;;;;;;;5.50;4.25;;;;;21.94;35.57;100958.72;6099237;23;45389;-84
2022/04/19 13:49:15;;;;;;;;;5.75;4.25;;;;;22.02;35.42;100957.44;6126170;23;45329;-81
2022/04/19 13:51:42;;;;;;;;;4.33;4.33;;;;;22.15;35.43;100941.59;6116023;23;45949;-83
2022/04/19 13:54:10;;;;;;;;;6.00;2.67;;;;;22.28;34.88;100943.72;6102399;23;45180;-84
2022/04/19 13:56:48;;;;;;;;;5.00;5.00;;;;;22.27;34.59;100933.94;6112096;23;45330;-88
2022/04/19 13:59:16;;;;;;;;;5.00;5.00;;;;;22.27;34.49;100940.19;6126608;23;45714;-86
2022/04/19 14:01:43;;;;;;;;;5.00;4.33;;;;;22.27;35.05;100928.59;6129734;23;46139;-89
2022/04/19 14:04:08;;;;;;;;;5.67;4.67;;;;;22.36;35.00;100926.28;6103233;23;45304;-87
2022/04/19 14:06:42;;;;;;;;;4.00;4.00;;;;;22.46;34.27;100932.09;6099016;23;45260;-86
2022/04/19 14:09:12;;;;;;;;;5.33;4.67;;;;;22.42;34.39;100919.75;6102251;23;45300;-85
2022/04/19 14:11:41;;;;;;;;;6.25;5.50;;;;;22.42;34.31;100919.75;6099335;23;47099;-86
2022/04/19 14:14:07;;;;;;;;;3.00;2.33;;;;;22.35;34.64;100924.56;6123847;23;45211;-84
2022/04/19 14:16:47;;;;;;;;;5.67;5.00;;;;;22.42;35.06;100917.94;6127952;23;45173;-93
2022/04/19 14:19:14;;;;;;;;;6.00;5.00;;;;;22.64;35.14;100914.16;6101585;23;45332;-85
2022/04/19 14:21:39;;;;;;;;;7.00;5.33;;;;;22.82;34.69;100902.47;6098276;23;46303;-85
2022/04/19 14:24:05;;;;;;;;;5.67;5.00;;;;;23.01;34.64;100898.84;6125958;23;45417;-84
2022/04/19 14:26:30;;;;;;;;;7.00;5.33;;;;;23.04;33.41;100904.94;6126009;23;45289;-89
2022/04/19 14:34:25;;;;;;;;;4.67;4.67;;;;;22.28;34.44;100901.66;6156620;23;45409;-86
2022/04/19 14:36:51;;;;;;;;;5.33;4.67;;;;;22.26;34.33;100895.50;6160721;23;45313;-92
2022/04/19 14:39:19;;;;;;;;;5.00;5.00;;;;;22.26;34.15;100900.88;6133105;23;45120;-93
2022/04/19 14:41:45;;;;;;;;;6.33;6.33;;;;;22.29;33.77;100899.84;6135307;23;46810;-91
2022/04/19 14:44:11;;;;;;;;;7.00;7.00;;;;;22.41;34.35;100897.44;6163753;23;45692;-93
2022/04/19 15:28:05;;;;;;;;;5.67;5.67;;;;;28.08;25.32;100875.59;6252164;22;45508;-85
2022/04/19 15:30:36;;;;;;;;;4.33;4.33;;;;;27.46;26.32;100873.81;6224179;22;45243;-84
2022/04/19 15:33:23;;;;;;;;;5.67;5.67;;;;;26.91;26.75;100867.75;6337998;22;46330;-84
2022/04/19 15:46:41;;;;;;;;;7.00;6.00;;;;;25.30;28.62;100860.44;6217501;22;45766;-86
2022/04/19 15:49:52;;;;;;;;;4.33;4.33;;;;;24.94;29.40;100843.88;6157534;23;45481;-87
2022/04/19 15:52:26;;;;;;;;;5.67;5.00;;;;;24.68;29.97;100857.13;6151478;22;45324;-88
2022/04/19 16:02:01;;;;;;;;;;;;;;;;;;;;;
2022/04/19 16:04:43;;;;;;;;;5.33;5.00;;;;;23.67;30.62;100858.50;6070105;23;66895;-87
2022/04/19 16:56:06;;;;;;;;;7.75;5.50;;;;;21.18;35.97;100858.69;6355129;22;45415;-86
2022/04/19 17:09:29;;;;;;;;;;;;;;;;;;;;;
2022/04/19 17:12:55;;;;;;;;;;;;;;;;;;;;;
2022/04/19 17:19:30;;;;;;;;;3.50;3.50;;;;;20.49;38.00;100851.88;6060255;23;45656;-86
2022/04/19 17:57:00;;;;;;;;;2.00;2.00;;;;;20.90;36.51;100863.47;6342234;22;45363;-82
2022/04/19 17:59:45;;;;;;;;;3.33;3.33;;;;;20.48;37.26;100868.88;6336794;22;45263;-83
2022/04/19 18:02:14;;;;;;;;;3.00;3.00;;;;;20.18;38.24;100868.34;6314234;22;45289;-81
2022/04/19 18:04:42;;;;;;;;;3.67;3.67;;;;;20.04;38.88;100874.25;6315566;22;45579;-81
2022/04/19 18:07:13;;;;;;;;;3.67;3.67;;;;;19.84;38.86;100888.44;6316214;22;44849;-81
2022/04/19 18:09:40;;;;;;;;;5.00;5.00;;;;;19.62;39.49;100883.06;6315697;22;46876;-81
2022/04/19 18:12:14;;;;;;;;;3.00;3.00;;;;;19.48;39.02;100885.38;6316579;22;45266;-81
2022/04/19 18:14:43;;;;;;;;;3.50;3.00;;;;;19.30;40.24;100889.59;6316793;22;45353;-82
2022/04/19 18:18:11;;;;;;;;;;;;;;;;;;;;;
2022/04/19 18:21:34;;;;;;;;;;;;;;;;;;;;;
2022/04/19 18:28:16;;;;;;;;;;;;;;;;;;;;;
2022/04/19 18:31:30;;;;;;;;;;;;;;;;;;;;;
2022/04/19 18:34:35;;;;;;;;;;;;;;;;;;;;;
2022/04/19 18:37:02;;;;;;;;;4.00;4.00;;;;;18.17;41.37;100902.44;6342453;22;72472;-81
2022/04/19 18:39:28;;;;;;;;;4.00;3.25;;;;;18.09;41.23;100918.66;6314396;22;45581;-82
2022/04/19 18:42:03;;;;;;;;;3.00;3.00;;;;;17.98;41.81;100932.31;6314097;22;45431;-81
2022/04/19 18:44:36;;;;;;;;;2.00;2.00;;;;;17.83;42.18;100935.47;6314804;22;46867;-81
2022/04/19 18:51:08;;;;;;;;;6.50;5.25;;;;;17.54;42.47;100946.97;6154366;23;45444;-83
2022/04/19 18:54:31;;;;;;;;;;;;;;;;;;;;;
2022/04/19 18:57:12;;;;;;;;;4.75;4.00;;;;;17.26;43.30;100946.88;6070108;23;74968;-81
2022/04/19 18:59:44;;;;;;;;;5.75;4.50;;;;;17.18;43.23;100952.41;6070425;23;46083;-80
2022/04/19 19:05:15;;;;;;;;;6.00;6.00;;;;;17.01;43.04;100970.63;6163576;23;45740;-81
2022/04/19 19:07:41;;;;;;;;;3.50;3.50;;;;;16.99;43.61;100986.63;6219700;22;48127;-80
2022/04/19 19:10:08;;;;;;;;;3.00;3.00;;;;;16.79;43.15;100968.53;6303955;22;45616;-81
2022/04/19 19:12:35;;;;;;;;;6.75;5.75;;;;;16.76;43.70;100985.41;6277729;22;45295;-80
2022/04/19 19:15:04;;;;;;;;;2.75;2.75;;;;;16.66;44.08;100983.88;6281585;22;45426;-80
2022/04/19 19:17:30;;;;;;;;;8.75;6.25;;;;;16.54;44.43;100978.88;6276991;22;46078;-81
2022/04/19 19:19:56;;;;;;;;;9.50;5.25;;;;;16.56;44.26;101000.97;6275823;22;45362;-80
2022/04/19 19:22:27;;;;;;;;;6.00;6.00;;;;;16.50;43.89;101004.66;6276151;22;45359;-81
2022/04/19 19:24:55;;;;;;;;;4.25;4.25;;;;;16.46;44.21;101002.97;6302972;22;45457;-80
2022/04/19 19:27:31;;;;;;;;;4.75;4.50;;;;;16.41;44.92;101006.66;6275593;22;45972;-80
2022/04/19 19:30:07;;;;;;;;;5.75;4.00;;;;;16.28;44.73;100988.34;6276895;22;45361;-79
2022/04/19 19:32:36;;;;;;;;;7.00;5.75;;;;;16.22;44.85;101000.88;6303779;22;45414;-80
2022/04/19 19:35:04;;;;;;;;;7.00;6.25;;;;;16.18;45.41;101017.81;6278489;22;45125;-80
2022/04/19 19:37:39;;;;;;;;;5.75;5.75;;;;;16.03;44.95;101001.31;6279141;22;45311;-80
2022/04/19 19:40:08;;;;;;;;;7.00;5.75;;;;;15.94;45.14;101000.66;6279832;22;45453;-80
2022/04/19 19:42:45;;;;;;;;;8.00;8.00;;;;;15.84;45.31;101000.81;6276546;22;45283;-80
2022/04/19 19:45:12;;;;;;;;;3.75;3.75;;;;;15.78;45.35;101002.75;6276528;22;45224;-80
2022/04/19 19:47:38;;;;;;;;;6.75;5.50;;;;;15.81;45.86;101022.13;6278182;22;45510;-80
2022/04/19 19:50:18;;;;;;;;;;;;;;;;;;;;;
2022/04/19 19:52:46;;;;;;;;;6.75;6.50;;;;;15.71;45.85;101022.34;6277521;22;68894;-80
2022/04/19 19:55:12;;;;;;;;;4.00;4.00;;;;;15.64;45.14;101016.28;6301170;22;45427;-80
2022/04/19 19:57:38;;;;;;;;;7.75;6.00;;;;;15.60;45.42;101027.84;6308965;22;47228;-80
2022/04/19 20:00:15;;;;;;;;;4.00;4.00;;;;;15.39;44.92;101003.47;6310344;22;45516;-80
2022/04/19 20:02:43;;;;;;;;;4.00;4.00;;;;;15.33;45.20;100997.44;6311562;22;45669;-78
2022/04/19 20:05:21;;;;;;;;;4.25;4.00;;;;;15.39;45.15;101018.53;6311123;22;45449;-80
2022/04/19 20:08:03;;;;;;;;;5.50;4.50;;;;;15.24;45.36;101005.56;6309116;22;47346;-80
2022/04/19 20:10:33;;;;;;;;;4.25;4.00;;;;;15.30;44.94;101016.94;6310883;22;45261;-81
2022/04/19 20:13:00;;;;;;;;;5.00;5.00;;;;;15.20;44.58;101020.66;6310960;22;45392;-80
2022/04/19 20:15:28;;;;;;;;;6.25;6.25;;;;;15.10;44.92;101013.75;6308949;22;45562;-81
2022/04/19 20:18:53;;;;;;;;;;;;;;;;;;;;;
2022/04/19 20:21:25;;;;;;;;;6.00;5.00;;;;;15.03;44.74;101022.75;6259851;22;74548;-79
2022/04/19 20:24:10;;;;;;;;;5.75;5.75;;;;;14.97;44.83;101021.94;6308312;22;45770;-81
2022/04/19 20:26:45;;;;;;;;;;;;;;;;;;;;;
2022/04/19 20:29:14;;;;;;;;;5.50;5.50;;;;;14.74;45.34;101002.91;6307430;22;74951;-82
2022/04/19 20:31:51;;;;;;;;;7.75;7.00;;;;;14.74;44.88;101018.81;6309204;22;45419;-80
2022/04/19 20:34:16;;;;;;;;;6.25;6.25;;;;;14.61;44.83;100996.94;6333617;22;45368;-81
2022/04/19 20:37:07;;;;;;;;;;;;;;;;;;;;;
2022/04/19 20:39:41;;;;;;;;;6.75;5.75;;;;;14.56;45.26;101004.94;6307466;22;74544;-80
2022/04/19 20:42:22;;;;;;;;;;;;;;;;;;;;;
2022/04/19 20:44:47;;;;;;;;;6.00;5.00;;;;;14.62;45.26;101025.19;6308496;22;68792;-78
2022/04/19 20:50:11;;;;;;;;;8.00;8.00;;;;;14.51;45.68;101009.44;6308559;22;45464;-78
2022/04/19 20:52:46;;;;;;;;;5.00;5.00;;;;;14.50;45.99;101010.31;6307655;22;45519;-79
2022/04/19 20:55:16;;;;;;;;;9.00;6.25;;;;;14.41;45.85;100999.88;6335417;22;45380;-78
2022/04/19 20:57:52;;;;;;;;;11.50;9.50;;;;;14.33;46.53;100986.75;6340625;22;45354;-79
2022/04/19 21:00:23;;;;;;;;;8.25;8.00;;;;;14.30;46.08;100986.78;6315311;22;46559;-80
2022/04/19 21:02:49;;;;;;;;;10.50;9.00;;;;;14.41;46.51;101004.31;6311679;22;45288;-78
2022/04/19 21:05:15;;;;;;;;;8.25;6.75;;;;;14.30;46.74;100988.53;6342231;22;45469;-80
2022/04/19 21:07:41;;;;;;;;;10.50;8.25;;;;;14.36;47.57;101004.38;6314237;22;45267;-79
2022/04/19 21:10:10;;;;;;;;;6.25;6.25;;;;;14.33;47.25;101001.78;6343176;22;45460;-78
2022/04/19 21:12:47;;;;;;;;;9.25;7.25;;;;;14.29;47.60;101003.56;6314181;22;45391;-81
2022/04/19 21:15:16;;;;;;;;;7.00;7.00;;;;;14.18;47.48;100991.41;6315811;22;44767;-78
2022/04/19 21:17:49;;;;;;;;;9.50;7.25;;;;;14.21;47.63;100999.28;6312436;22;45251;-78
2022/04/19 21:20:16;;;;;;;;;10.00;7.25;;;;;14.13;47.62;100987.03;6313605;22;47895;-78
2022/04/19 21:22:44;;;;;;;;;6.00;6.00;;;;;14.19;47.60;100996.66;6342913;22;45401;-78
2022/04/19 21:25:11;;;;;;;;;11.00;11.00;;;;;14.15;47.67;100996.75;6340887;22;45389;-79
2022/04/19 21:27:38;;;;;;;;;8.75;8.75;;;;;14.10;47.98;100987.06;6341647;22;45416;-81
2022/04/19 21:30:05;;;;;;;;;8.75;8.75;;;;;14.17;48.02;100995.81;6343264;22;46407;-77
2022/04/19 21:32:34;;;;;;;;;9.75;9.50;;;;;14.16;47.90;100998.47;6314979;22;45606;-82
2022/04/19 21:35:01;;;;;;;;;8.25;8.25;;;;;14.01;48.05;100968.69;6313794;22;45439;-80
2022/04/19 21:37:27;;;;;;;;;9.50;8.50;;;;;14.02;48.26;100985.44;6314708;22;45735;-80
2022/04/19 21:39:55;;;;;;;;;7.75;7.25;;;;;14.00;48.27;100980.16;6314247;22;46928;-81
2022/04/19 21:42:21;;;;;;;;;9.25;7.25;;;;;14.02;48.58;100994.25;6341480;22;45688;-79
2022/04/19 21:44:47;;;;;;;;;10.00;9.50;;;;;13.98;48.70;100989.00;6314515;22;45383;-80
2022/04/19 21:47:13;;;;;;;;;10.25;9.00;;;;;13.87;48.55;100970.63;6344470;22;45300;-78
2022/04/19 21:49:38;;;;;;;;;13.50;10.00;;;;;13.86;49.06;100987.41;6312855;22;47661;-77
2022/04/19 21:52:04;;;;;;;;;9.25;8.50;;;;;13.88;48.88;100993.56;6317307;22;45400;-82
2022/04/19 21:54:32;;;;;;;;;9.25;9.25;;;;;13.82;48.79;100980.41;6342528;22;45381;-79
2022/04/19 21:57:42;;;;;;;;;;;;;;;;;;;;;
2022/04/19 22:00:08;;;;;;;;;12.00;10.25;;;;;13.79;49.07;100986.63;6341554;22;73588;-81
2022/04/19 22:02:34;;;;;;;;;12.75;10.75;;;;;13.76;49.11;100991.06;6314597;22;45513;-81
2022/04/19 22:08:14;;;;;;;;;10.75;9.75;;;;;13.75;49.77;101006.09;6310811;22;45326;-81
2022/04/19 22:10:39;;;;;;;;;12.50;11.50;;;;;13.68;49.83;100996.47;6310841;22;45694;-80
2022/04/19 22:13:05;;;;;;;;;10.75;10.50;;;;;13.59;49.76;100983.34;6311869;22;45452;-81
2022/04/19 22:15:30;;;;;;;;;13.25;11.75;;;;;13.54;50.14;100983.41;6339258;22;45456;-81
2022/04/19 22:21:18;;;;;;;;;12.50;11.75;;;;;13.44;50.68;100987.94;6339754;22;45336;-80
2022/04/19 22:23:43;;;;;;;;;12.00;11.00;;;;;13.35;50.93;100982.75;6309740;22;45423;-81
2022/04/19 22:26:45;;;;;;;;;;;;;;;;;;;;;
2022/04/19 22:29:11;;;;;;;;;10.50;9.25;;;;;13.30;51.27;100974.00;6336848;22;72895;-79
2022/04/19 22:31:36;;;;;;;;;13.25;11.75;;;;;13.25;51.38;100979.28;6339052;22;45587;-80
2022/04/19 22:34:04;;;;;;;;;17.00;13.00;;;;;13.21;51.73;100988.16;6338610;22;45739;-81
2022/04/19 22:36:29;;;;;;;;;15.50;13.00;;;;;13.22;51.60;100986.38;6337266;22;45404;-80
2022/04/19 22:38:55;;;;;;;;;13.00;12.00;;;;;13.20;51.62;100977.59;6337102;22;45460;-80
2022/04/19 22:41:20;;;;;;;;;12.50;12.50;;;;;13.07;51.68;100954.81;6338709;22;45938;-80
2022/04/19 22:43:46;;;;;;;;;9.75;8.00;;;;;13.10;52.21;100957.47;6338212;22;45442;-81
2022/04/19 22:46:13;;;;;;;;;16.00;14.00;;;;;13.23;52.09;100977.56;6311835;22;45759;-80
2022/04/19 22:48:38;;;;;;;;;14.50;12.50;;;;;13.05;52.05;100949.56;6309824;22;45727;-82
2022/04/19 22:51:06;;;;;;;;;12.25;11.25;;;;;13.02;52.19;100950.47;6309403;22;46778;-79
2022/04/19 22:53:34;;;;;;;;;14.00;13.25;;;;;13.11;52.02;100968.00;6309762;22;45409;-83
2022/04/19 22:55:59;;;;;;;;;18.00;15.50;;;;;13.00;52.30;100954.91;6336316;22;45848;-81
2022/04/19 22:58:25;;;;;;;;;14.75;14.00;;;;;13.09;52.58;100972.41;6309645;22;45429;-81
2022/04/19 23:00:52;;;;;;;;;13.75;13.75;;;;;12.87;52.69;100942.69;6309875;22;46967;-81
2022/04/19 23:03:18;;;;;;;;;18.75;16.00;;;;;12.86;52.49;100946.25;6309678;22;45456;-81
2022/04/19 23:05:43;;;;;;;;;16.75;12.00;;;;;12.79;53.18;100941.91;6310725;22;45432;-79
2022/04/19 23:08:09;;;;;;;;;14.00;13.25;;;;;12.83;53.00;100958.59;6338440;22;45413;-79
2022/04/19 23:10:34;;;;;;;;;16.50;15.00;;;;;12.86;53.12;100955.94;6309836;22;48221;-80
2022/04/19 23:13:00;;;;;;;;;21.25;17.00;;;;;12.77;53.15;100948.94;6336991;22;45395;-80
2022/04/19 23:15:28;;;;;;;;;14.50;13.00;;;;;12.70;53.30;100950.78;6311758;22;45476;-80
2022/04/19 23:17:54;;;;;;;;;16.75;15.00;;;;;12.68;53.31;100946.41;6343061;22;45450;-78
2022/04/19 23:20:19;;;;;;;;;19.75;17.00;;;;;12.58;53.96;100945.59;6343765;22;45494;-81
2022/04/19 23:22:47;;;;;;;;;21.00;16.75;;;;;12.63;53.98;100964.06;6340001;22;45345;-80
2022/04/19 23:25:22;;;;;;;;;21.00;20.25;;;;;12.53;54.25;100953.56;6315764;22;45228;-80
2022/04/19 23:28:09;;;;;;;;;;;;;;;;;;;;;
2022/04/19 23:30:46;;;;;;;;;19.25;17.50;;;;;12.41;54.58;100931.69;6340651;22;73875;-81
2022/04/19 23:33:37;;;;;;;;;19.75;17.50;;;;;12.41;54.38;100932.56;6314917;22;45291;-81
2022/04/19 23:39:13;;;;;;;;;21.75;20.00;;;;;12.44;54.65;100950.13;6246339;22;45943;-81
2022/04/19 23:41:39;;;;;;;;;24.00;20.00;;;;;12.49;54.89;100951.84;6302702;22;45449;-80
2022/04/19 23:44:40;;;;;;;;;20.75;19.00;;;;;12.46;54.90;100958.94;6312600;22;45421;-81
2022/04/19 23:46:59;;;;;;;;;20.00;20.00;;;;;12.27;55.08;100923.84;6335775;22;45362;-81
2022/04/19 23:49:50;;;;;;;;;21.00;21.00;;;;;12.38;55.04;100950.19;6316784;22;45510;-80
2022/04/19 23:52:18;;;;;;;;;25.00;20.25;;;;;12.31;55.39;100944.06;6343870;22;45475;-81
2022/04/19 23:54:44;;;;;;;;;27.75;22.00;;;;;12.22;55.52;100925.69;6341767;22;44807;-80
2022/04/19 23:57:09;;;;;;;;;22.25;22.25;;;;;12.09;55.73;100909.91;6314815;22;45520;-80
2022/04/19 23:59:55;;;;;;;;;21.75;21.25;;;;;12.25;56.00;100938.84;6315902;22;45611;-81
